Time;durP1;ratioP1;P1;durP2;ratioP2;P2;SDS_P1;SDS_P2;PMS_P1;PMS_P2;Temp;Humidity;BMP_temperature;BMP_pressure;BME280_temperature;BME280_humidity;BME280_pressure;Samples;Min_cycle;Max_cycle;Signal;HPM_P1;HPM_P2
2022/06/18 00:00:44;;;;;;;12.13;6.13;;;16.10;99.90;;;;;;5081737;28;20055;-62
2022/06/18 00:03:11;;;;;;;9.73;6.07;;;16.00;99.90;;;;;;5087471;28;20103;-63
2022/06/18 00:05:38;;;;;;;11.30;5.75;;;16.00;99.90;;;;;;5086519;28;20135;-63
2022/06/18 00:08:10;;;;;;;10.70;5.97;;;16.00;99.90;;;;;;5085032;28;20031;-62
2022/06/18 00:10:35;;;;;;;9.93;5.68;;;16.00;99.90;;;;;;5074238;28;20120;-62
2022/06/18 00:16:00;;;;;;;10.57;5.93;;;15.80;99.90;;;;;;5083411;28;20081;-63
2022/06/18 00:18:27;;;;;;;11.18;5.93;;;15.70;99.90;;;;;;5087487;28;20028;-62
2022/06/18 00:20:53;;;;;;;13.32;5.53;;;15.90;99.90;;;;;;5074628;28;20031;-62
2022/06/18 00:23:19;;;;;;;10.88;6.35;;;15.80;99.90;;;;;;5067533;28;20036;-64
2022/06/18 00:25:48;;;;;;;12.40;6.07;;;15.80;99.90;;;;;;5079448;28;20036;-62
2022/06/18 00:28:26;;;;;;;10.77;5.80;;;15.70;99.90;;;;;;5085989;28;20052;-62
2022/06/18 00:30:53;;;;;;;14.65;6.25;;;15.60;99.90;;;;;;5089023;28;20480;-63
2022/06/18 00:33:19;;;;;;;12.13;6.32;;;15.50;99.90;;;;;;5076004;28;20037;-62
2022/06/18 00:35:47;;;;;;;13.15;6.38;;;15.50;99.90;;;;;;5087141;28;20406;-63
2022/06/18 00:38:21;;;;;;;12.18;6.43;;;15.40;99.90;;;;;;5088114;28;20036;-63
2022/06/18 00:40:47;;;;;;;13.13;5.95;;;15.40;99.90;;;;;;5089181;28;20036;-65
2022/06/18 00:43:17;;;;;;;12.73;6.13;;;15.40;99.90;;;;;;5090787;28;20028;-65
2022/06/18 00:45:43;;;;;;;10.88;6.05;;;15.50;99.90;;;;;;5090005;28;20058;-65
2022/06/18 00:48:37;;;;;;;10.98;6.03;;;15.50;99.90;;;;;;5090948;28;20036;-67
2022/06/18 00:51:05;;;;;;;14.38;5.60;;;15.40;99.90;;;;;;5080473;28;20484;-62
2022/06/18 00:53:36;;;;;;;11.50;5.90;;;15.40;99.90;;;;;;5089497;28;20036;-62
2022/06/18 00:56:06;;;;;;;;;;;15.30;99.90;;;;;;5093553;28;20035;-62
2022/06/18 00:58:38;;;;;;;14.85;6.13;;;15.30;99.90;;;;;;5087669;28;19908;-62
2022/06/18 01:01:12;;;;;;;9.55;5.93;;;15.30;99.90;;;;;;5083083;28;20028;-62
2022/06/18 01:03:38;;;;;;;12.25;6.20;;;15.30;99.90;;;;;;5085975;28;20070;-62
2022/06/18 01:06:23;;;;;;;11.43;6.30;;;15.20;99.90;;;;;;5089023;28;20051;-62
2022/06/18 01:08:57;;;;;;;11.43;5.97;;;15.20;99.90;;;;;;5090084;28;20500;-63
2022/06/18 01:11:26;;;;;;;9.30;5.78;;;15.30;99.90;;;;;;5088699;28;20029;-62
2022/06/18 01:13:53;;;;;;;9.80;5.82;;;15.30;99.90;;;;;;5079350;28;20058;-62
2022/06/18 01:16:20;;;;;;;14.63;6.43;;;15.30;99.90;;;;;;5087416;28;20487;-64
2022/06/18 01:18:48;;;;;;;12.38;6.57;;;15.20;99.90;;;;;;5071473;28;20035;-62
2022/06/18 01:21:35;;;;;;;10.15;6.07;;;15.20;99.90;;;;;;5073096;28;20020;-64
2022/06/18 01:24:16;;;;;;;10.07;5.95;;;15.10;99.90;;;;;;5078014;28;20392;-64
2022/06/18 01:26:43;;;;;;;;;;;15.10;99.90;;;;;;5091244;28;20085;-62
2022/06/18 01:29:09;;;;;;;10.80;6.25;;;15.00;99.90;;;;;;5084489;28;19920;-63
2022/06/18 01:31:35;;;;;;;11.90;6.25;;;14.90;99.90;;;;;;5069597;28;20037;-62
2022/06/18 01:34:01;;;;;;;10.02;5.97;;;14.80;99.90;;;;;;5082273;28;20495;-63
2022/06/18 01:36:31;;;;;;;11.57;6.22;;;14.70;99.90;;;;;;5087034;28;20157;-63
2022/06/18 01:38:57;;;;;;;11.80;6.40;;;14.80;99.90;;;;;;5085114;28;20036;-62
2022/06/18 01:41:52;;;;;;;11.35;6.13;;;14.80;99.90;;;;;;5088147;28;20028;-62
2022/06/18 01:44:45;;;;;;;12.23;6.10;;;14.80;99.90;;;;;;5087984;28;20035;-62
2022/06/18 01:47:14;;;;;;;12.32;6.00;;;14.80;99.90;;;;;;5085853;28;20354;-64
2022/06/18 01:49:53;;;;;;;10.15;6.70;;;14.80;99.90;;;;;;5073816;28;20039;-63
2022/06/18 01:52:26;;;;;;;9.07;6.15;;;14.80;99.90;;;;;;5082923;28;20043;-63
2022/06/18 01:54:54;;;;;;;11.00;6.00;;;14.80;99.90;;;;;;5088462;28;20819;-63
2022/06/18 01:57:29;;;;;;;10.88;6.25;;;14.70;99.90;;;;;;5084156;28;20028;-64
2022/06/18 02:00:04;;;;;;;8.95;6.28;;;14.70;99.90;;;;;;5081202;28;20032;-62
2022/06/18 02:02:29;;;;;;;11.50;6.63;;;14.80;99.90;;;;;;5072423;28;20030;-63
2022/06/18 02:04:55;;;;;;;11.88;6.15;;;14.90;99.90;;;;;;5078335;28;20036;-62
2022/06/18 02:07:21;;;;;;;11.15;6.45;;;14.90;99.90;;;;;;5087963;28;20372;-62
2022/06/18 02:10:01;;;;;;;14.07;6.53;;;14.90;99.90;;;;;;5080712;28;20040;-62
2022/06/18 02:12:36;;;;;;;16.00;6.47;;;14.80;99.90;;;;;;5089393;28;20040;-62
2022/06/18 02:15:10;;;;;;;10.10;6.13;;;14.70;99.90;;;;;;5083869;28;20033;-62
2022/06/18 02:17:38;;;;;;;12.70;6.38;;;14.70;99.90;;;;;;5075325;28;20539;-62
2022/06/18 02:20:27;;;;;;;14.20;6.85;;;14.70;99.90;;;;;;5082737;28;20103;-63
2022/06/18 02:22:55;;;;;;;19.90;6.32;;;14.60;99.90;;;;;;5069501;28;20043;-62
2022/06/18 02:25:24;;;;;;;11.70;6.63;;;14.60;99.90;;;;;;5084293;28;20385;-63
2022/06/18 02:27:57;;;;;;;9.30;6.55;;;14.60;99.90;;;;;;5089098;28;20465;-62
2022/06/18 02:30:26;;;;;;;10.90;6.45;;;14.50;99.90;;;;;;5084072;28;21259;-62
2022/06/18 02:33:28;;;;;;;10.50;5.97;;;14.50;99.90;;;;;;5069438;28;20420;-62
2022/06/18 02:35:55;;;;;;;14.77;7.07;;;14.50;99.90;;;;;;5084536;28;20143;-62
2022/06/18 02:38:22;;;;;;;11.68;7.00;;;14.50;99.90;;;;;;5086954;28;20199;-62
2022/06/18 02:40:51;;;;;;;9.90;6.70;;;14.40;99.90;;;;;;5088016;28;20491;-62
2022/06/18 02:43:19;;;;;;;12.57;6.75;;;14.40;99.90;;;;;;5086392;28;20031;-64
2022/06/18 02:45:49;;;;;;;10.90;6.47;;;14.30;99.90;;;;;;5083354;28;20468;-62
2022/06/18 02:48:15;;;;;;;10.85;7.15;;;14.20;99.90;;;;;;5079240;28;20033;-65
2022/06/18 02:50:43;;;;;;;11.25;6.70;;;14.20;99.90;;;;;;5086725;28;20494;-62
2022/06/18 02:53:11;;;;;;;11.77;7.00;;;14.20;99.90;;;;;;5086653;28;20449;-62
2022/06/18 02:55:47;;;;;;;12.80;6.90;;;14.10;99.90;;;;;;5077352;28;20107;-62
2022/06/18 02:58:17;;;;;;;10.00;6.63;;;14.10;99.90;;;;;;5078784;28;20028;-62
2022/06/18 03:00:47;;;;;;;11.88;6.68;;;14.20;99.90;;;;;;5077085;28;20041;-62
2022/06/18 03:03:15;;;;;;;12.43;6.93;;;14.10;99.90;;;;;;5087684;28;20036;-62
2022/06/18 03:05:41;;;;;;;10.13;6.03;;;14.00;99.90;;;;;;5087283;28;20361;-62
2022/06/18 03:08:08;;;;;;;11.95;6.25;;;14.00;99.90;;;;;;5086647;28;20622;-63
2022/06/18 03:13:19;;;;;;;9.75;6.53;;;14.00;99.90;;;;;;5086219;28;20075;-64
2022/06/18 03:15:46;;;;;;;10.45;6.65;;;14.00;99.90;;;;;;5076451;28;20036;-62
2022/06/18 03:18:12;;;;;;;10.27;6.65;;;13.90;99.90;;;;;;5079601;28;20035;-62
2022/06/18 03:21:02;;;;;;;10.82;6.78;;;13.90;99.90;;;;;;5072522;28;20106;-62
2022/06/18 03:23:29;;;;;;;9.77;6.80;;;14.00;99.90;;;;;;5067724;28;20063;-63
2022/06/18 03:25:54;;;;;;;10.48;6.55;;;14.00;99.90;;;;;;5078746;28;20775;-62
2022/06/18 03:28:22;;;;;;;10.93;6.70;;;13.90;99.90;;;;;;5085003;28;20131;-64
2022/06/18 03:30:48;;;;;;;11.90;7.00;;;13.80;99.90;;;;;;5082700;28;20035;-62
2022/06/18 03:33:14;;;;;;;9.93;6.47;;;13.70;99.90;;;;;;5085596;28;20033;-62
2022/06/18 03:35:43;;;;;;;10.35;6.68;;;13.70;99.90;;;;;;5075014;28;20028;-62
2022/06/18 03:38:14;;;;;;;11.52;6.68;;;13.70;99.90;;;;;;5084169;28;20083;-63
2022/06/18 03:40:40;;;;;;;11.18;6.88;;;13.80;99.90;;;;;;5077686;28;20111;-62
2022/06/18 03:43:06;;;;;;;15.85;6.75;;;13.70;99.90;;;;;;5070375;28;20041;-62
2022/06/18 03:45:41;;;;;;;12.60;7.07;;;13.80;99.90;;;;;;5076817;28;20036;-62
2022/06/18 03:48:07;;;;;;;12.35;7.13;;;13.80;99.90;;;;;;5080463;28;20797;-62
2022/06/18 03:50:33;;;;;;;9.98;6.65;;;13.80;99.90;;;;;;5086042;28;20047;-62
2022/06/18 03:52:59;;;;;;;14.20;7.72;;;13.80;99.90;;;;;;5087467;28;20044;-63
2022/06/18 03:55:25;;;;;;;12.25;6.63;;;13.90;99.90;;;;;;5083731;28;20089;-62
2022/06/18 03:57:51;;;;;;;15.07;7.47;;;14.10;99.90;;;;;;5074246;28;20070;-62
2022/06/18 04:00:20;;;;;;;15.43;7.00;;;14.20;99.90;;;;;;5084241;28;20093;-62
2022/06/18 04:02:46;;;;;;;13.68;7.03;;;14.20;99.90;;;;;;5077760;28;20066;-63
2022/06/18 04:05:12;;;;;;;12.60;7.38;;;14.30;99.90;;;;;;5085508;28;20484;-64
2022/06/18 04:07:40;;;;;;;12.20;7.05;;;14.30;99.90;;;;;;5092888;28;20052;-62
2022/06/18 04:10:06;;;;;;;13.02;7.38;;;14.40;99.90;;;;;;5089558;28;20408;-63
2022/06/18 04:12:32;;;;;;;9.13;6.53;;;14.50;99.90;;;;;;5093207;28;20115;-62
2022/06/18 04:14:58;;;;;;;14.52;7.60;;;14.50;99.90;;;;;;5076025;28;20028;-62
2022/06/18 04:17:24;;;;;;;8.90;6.70;;;14.50;99.90;;;;;;5077876;28;20028;-63
2022/06/18 04:19:50;;;;;;;11.57;6.72;;;14.50;99.90;;;;;;5084410;28;20039;-63
2022/06/18 04:22:16;;;;;;;10.05;6.65;;;14.60;99.90;;;;;;5090481;28;20529;-63
2022/06/18 04:24:42;;;;;;;15.20;7.05;;;14.70;99.90;;;;;;5089157;28;20055;-63
2022/06/18 04:27:08;;;;;;;13.13;6.50;;;14.70;99.90;;;;;;5090751;28;20404;-63
2022/06/18 04:29:34;;;;;;;11.05;7.30;;;14.70;99.90;;;;;;5085873;28;20248;-63
2022/06/18 04:32:00;;;;;;;9.68;6.47;;;14.80;99.90;;;;;;5091849;28;20085;-63
2022/06/18 04:34:27;;;;;;;12.77;6.60;;;14.80;99.90;;;;;;5094750;28;20043;-62
2022/06/18 04:36:54;;;;;;;12.85;6.30;;;14.90;99.90;;;;;;5091838;28;20028;-63
2022/06/18 04:39:20;;;;;;;11.73;6.65;;;15.00;99.90;;;;;;5076994;28;20036;-63
2022/06/18 04:41:46;;;;;;;13.48;6.60;;;15.10;99.90;;;;;;5089184;28;20042;-63
2022/06/18 04:44:13;;;;;;;10.57;6.10;;;15.30;99.90;;;;;;5076684;28;20081;-63
2022/06/18 04:46:38;;;;;;;10.77;6.53;;;15.40;99.90;;;;;;5090031;28;20555;-62
2022/06/18 04:49:06;;;;;;;7.82;5.65;;;15.60;99.90;;;;;;5083903;28;20150;-65
2022/06/18 04:51:31;;;;;;;13.45;6.80;;;15.80;99.90;;;;;;5077596;28;20055;-63
2022/06/18 04:53:57;;;;;;;11.68;5.97;;;16.00;99.90;;;;;;5083333;28;20085;-63
2022/06/18 04:56:23;;;;;;;11.13;6.38;;;16.10;99.90;;;;;;5082640;28;20035;-64
2022/06/18 04:58:49;;;;;;;10.70;6.00;;;16.20;99.90;;;;;;5087705;28;20032;-62
2022/06/18 05:01:18;;;;;;;12.25;6.47;;;16.40;99.90;;;;;;5083893;28;20044;-62
2022/06/18 05:03:43;;;;;;;16.55;6.50;;;16.50;99.90;;;;;;5092544;28;20039;-63
2022/06/18 05:06:09;;;;;;;12.50;6.60;;;16.50;99.90;;;;;;5086882;28;20271;-63
2022/06/18 05:08:35;;;;;;;12.80;6.78;;;16.60;99.90;;;;;;5088965;28;20217;-64
2022/06/18 05:11:01;;;;;;;12.40;6.90;;;16.70;99.90;;;;;;5087955;28;20515;-65
2022/06/18 05:13:29;;;;;;;9.85;6.20;;;16.80;99.90;;;;;;5087202;28;20040;-65
2022/06/18 05:15:56;;;;;;;10.55;6.90;;;16.90;99.90;;;;;;5088735;28;20028;-62
2022/06/18 05:18:26;;;;;;;9.55;6.82;;;17.10;99.90;;;;;;5077653;28;20039;-63
2022/06/18 05:20:52;;;;;;;9.93;6.47;;;17.20;99.90;;;;;;5089526;28;20031;-62
2022/06/18 05:23:19;;;;;;;12.10;6.80;;;17.30;99.90;;;;;;5087799;28;20118;-62
2022/06/18 05:25:46;;;;;;;12.73;6.82;;;17.50;99.90;;;;;;5087505;28;20094;-61
2022/06/18 05:28:13;;;;;;;11.48;6.97;;;17.60;99.90;;;;;;5085338;28;20112;-62
2022/06/18 05:30:39;;;;;;;15.20;7.07;;;17.60;99.90;;;;;;5086386;28;20036;-62
2022/06/18 05:33:06;;;;;;;17.83;6.88;;;17.70;99.90;;;;;;5086771;28;20060;-61
2022/06/18 05:35:35;;;;;;;9.98;7.00;;;17.80;99.90;;;;;;5082968;28;20453;-62
2022/06/18 05:38:01;;;;;;;9.95;6.38;;;18.00;99.90;;;;;;5081989;28;20028;-62
2022/06/18 05:40:27;;;;;;;11.25;6.93;;;18.10;99.90;;;;;;5085944;28;20024;-65
2022/06/18 05:42:54;;;;;;;7.35;6.03;;;18.40;99.90;;;;;;5086320;28;20047;-62
2022/06/18 05:45:21;;;;;;;10.88;6.72;;;18.50;99.90;;;;;;5082419;28;20120;-63
2022/06/18 05:47:46;;;;;;;9.77;6.35;;;18.70;99.90;;;;;;5080720;28;20028;-62
2022/06/18 05:50:15;;;;;;;15.13;5.75;;;18.80;99.90;;;;;;5085621;28;20039;-63
2022/06/18 05:52:42;;;;;;;7.85;6.30;;;18.90;99.90;;;;;;5084938;28;20481;-63
2022/06/18 05:55:07;;;;;;;10.30;6.68;;;19.00;99.90;;;;;;5085900;28;20024;-63
2022/06/18 05:57:33;;;;;;;13.18;6.05;;;19.10;99.90;;;;;;5084465;28;20094;-63
2022/06/18 06:00:05;;;;;;;10.98;6.47;;;19.20;99.90;;;;;;5086294;28;20071;-63
2022/06/18 06:02:31;;;;;;;10.90;6.07;;;19.40;99.90;;;;;;5083253;28;20037;-63
2022/06/18 06:04:57;;;;;;;8.60;5.65;;;19.50;99.90;;;;;;5087303;28;20404;-63
2022/06/18 06:07:24;;;;;;;10.95;5.82;;;19.70;99.90;;;;;;5090998;28;20380;-65
2022/06/18 06:12:36;;;;;;;10.25;5.75;;;20.10;99.90;;;;;;5083266;28;20039;-63
2022/06/18 06:15:02;;;;;;;8.18;5.95;;;20.30;99.90;;;;;;5086029;28;20028;-64
2022/06/18 06:17:29;;;;;;;9.25;5.90;;;20.40;99.90;;;;;;5088940;28;20032;-61
2022/06/18 06:20:08;;;;;;;7.53;5.65;;;20.40;99.90;;;;;;5083250;28;20464;-62
2022/06/18 06:22:35;;;;;;;8.05;5.40;;;20.70;99.90;;;;;;5086056;28;20464;-62
2022/06/18 06:25:01;;;;;;;9.98;5.68;;;20.90;99.90;;;;;;5085098;28;20030;-63
2022/06/18 06:27:27;;;;;;;7.03;4.88;;;21.10;99.90;;;;;;5087511;28;20103;-63
2022/06/18 06:29:52;;;;;;;8.40;5.15;;;21.30;99.90;;;;;;5082655;28;20164;-63
2022/06/18 06:32:18;;;;;;;7.13;4.60;;;21.50;99.90;;;;;;5085746;28;20438;-63
2022/06/18 06:34:43;;;;;;;6.80;4.78;;;21.70;99.90;;;;;;5080654;28;20040;-63
2022/06/18 06:37:10;;;;;;;14.10;4.78;;;21.90;99.90;;;;;;5087815;28;20152;-63
2022/06/18 06:39:36;;;;;;;7.78;5.03;;;22.20;99.90;;;;;;5080489;28;20097;-64
2022/06/18 06:42:02;;;;;;;8.55;5.30;;;22.30;99.90;;;;;;5083997;28;21641;-63
2022/06/18 06:44:28;;;;;;;8.77;4.65;;;22.40;99.90;;;;;;5073628;28;20036;-63
2022/06/18 06:46:54;;;;;;;10.63;4.20;;;22.70;99.90;;;;;;5082633;28;20028;-63
2022/06/18 06:49:20;;;;;;;9.10;4.63;;;22.80;99.90;;;;;;5081162;28;20047;-64
2022/06/18 06:51:46;;;;;;;6.07;4.38;;;23.00;99.90;;;;;;5082688;28;20468;-64
2022/06/18 06:54:12;;;;;;;5.68;4.43;;;23.10;99.90;;;;;;5086569;28;20050;-64
2022/06/18 06:59:22;;;;;;;4.82;4.32;;;23.30;99.90;;;;;;5084317;28;20553;-64
2022/06/18 07:01:47;;;;;;;8.82;4.53;;;23.60;99.90;;;;;;5081127;28;20036;-64
2022/06/18 07:04:14;;;;;;;6.75;4.68;;;23.70;99.90;;;;;;5081221;28;20036;-64
2022/06/18 07:06:40;;;;;;;5.93;4.40;;;23.90;99.90;;;;;;5081431;28;20032;-65
2022/06/18 07:09:07;;;;;;;9.55;4.45;;;24.00;99.90;;;;;;5082566;28;20039;-64
2022/06/18 07:11:34;;;;;;;7.82;4.35;;;24.10;99.90;;;;;;5082325;28;20388;-64
2022/06/18 07:14:00;;;;;;;3.95;3.45;;;24.20;99.90;;;;;;5082000;28;20176;-65
2022/06/18 07:16:26;;;;;;;5.15;4.15;;;24.40;98.10;;;;;;5084112;28;20468;-65
2022/06/18 07:18:53;;;;;;;14.68;4.20;;;24.50;99.90;;;;;;5082359;28;20032;-65
2022/06/18 07:21:21;;;;;;;5.70;3.97;;;24.70;98.70;;;;;;5083647;28;20101;-65
2022/06/18 07:23:47;;;;;;;15.35;3.97;;;24.80;95.80;;;;;;5083732;28;20081;-65
2022/06/18 07:26:16;;;;;;;9.27;3.97;;;24.90;94.40;;;;;;5079470;28;20028;-66
2022/06/18 07:28:43;;;;;;;6.32;4.07;;;25.00;96.40;;;;;;5078262;28;20399;-65
2022/06/18 07:31:27;;;;;;;6.88;3.75;;;25.20;93.90;;;;;;5088320;28;20431;-65
2022/06/18 07:33:53;;;;;;;8.65;3.63;;;25.20;93.20;;;;;;5086253;28;20170;-65
2022/06/18 07:36:19;;;;;;;8.43;3.85;;;25.40;91.50;;;;;;5088551;28;20032;-64
2022/06/18 07:38:45;;;;;;;5.75;4.05;;;25.50;93.10;;;;;;5087256;28;20031;-67
2022/06/18 07:41:14;;;;;;;8.35;3.70;;;25.50;90.10;;;;;;5089599;28;20107;-65
2022/06/18 07:43:43;;;;;;;12.32;4.10;;;25.60;91.40;;;;;;5091067;28;20062;-64
2022/06/18 07:46:12;;;;;;;5.85;3.67;;;25.60;92.30;;;;;;5092665;28;20395;-65
2022/06/18 07:48:43;;;;;;;5.82;3.80;;;25.80;90.70;;;;;;5091734;28;20098;-64
2022/06/18 07:51:09;;;;;;;7.38;3.85;;;25.90;90.50;;;;;;5092805;28;20044;-65
2022/06/18 07:53:35;;;;;;;16.33;3.88;;;26.00;89.80;;;;;;5091305;28;20118;-64
2022/06/18 07:56:02;;;;;;;7.20;3.63;;;26.10;88.70;;;;;;5092203;28;20028;-66
2022/06/18 07:58:28;;;;;;;6.35;3.42;;;26.20;87.50;;;;;;5090774;28;20388;-66
2022/06/18 08:00:55;;;;;;;6.38;3.40;;;26.20;83.30;;;;;;5091582;28;20031;-66
2022/06/18 08:03:21;;;;;;;7.03;3.80;;;26.20;88.00;;;;;;5092414;28;20030;-65
2022/06/18 08:05:47;;;;;;;5.88;3.35;;;26.30;83.70;;;;;;5091604;28;20024;-65
2022/06/18 08:08:14;;;;;;;7.70;3.72;;;26.40;82.50;;;;;;5091878;28;20082;-65
2022/06/18 08:10:42;;;;;;;17.77;3.92;;;26.50;81.40;;;;;;5086393;28;20039;-65
2022/06/18 08:13:08;;;;;;;4.78;3.90;;;26.50;78.00;;;;;;5089506;28;20070;-65
2022/06/18 08:15:34;;;;;;;4.40;3.20;;;26.50;77.80;;;;;;5098316;28;20032;-64
2022/06/18 08:18:00;;;;;;;5.78;3.53;;;26.60;80.40;;;;;;5090556;28;20369;-66
2022/06/18 08:20:28;;;;;;;6.43;4.00;;;26.80;79.10;;;;;;5089711;28;20106;-66
2022/06/18 08:22:55;;;;;;;6.13;3.60;;;26.80;79.50;;;;;;5095615;28;20024;-66
2022/06/18 08:25:23;;;;;;;6.05;3.63;;;26.80;77.80;;;;;;5101069;28;20102;-65
2022/06/18 08:27:51;;;;;;;13.98;3.97;;;26.80;77.50;;;;;;5089538;28;20093;-65
2022/06/18 08:30:17;;;;;;;5.10;3.30;;;26.90;77.20;;;;;;5091481;28;20047;-65
2022/06/18 08:32:44;;;;;;;5.55;3.70;;;27.00;75.00;;;;;;5090356;28;20081;-65
2022/06/18 08:35:10;;;;;;;9.52;3.40;;;27.00;71.00;;;;;;5089940;28;20097;-66
2022/06/18 08:37:38;;;;;;;11.00;3.47;;;27.10;71.30;;;;;;5091197;28;20028;-65
2022/06/18 08:40:34;;;;;;;9.98;3.50;;;27.20;70.50;;;;;;5091495;28;20071;-65
2022/06/18 08:43:26;;;;;;;6.88;3.40;;;27.20;70.50;;;;;;5090153;28;20032;-66
2022/06/18 08:46:17;;;;;;;3.72;3.30;;;27.60;70.90;;;;;;5068598;27;20134;-64
2022/06/18 08:49:03;;;;;;;7.05;3.33;;;27.50;66.20;;;;;;5070361;28;20426;-65
2022/06/18 08:51:41;;;;;;;3.42;3.10;;;27.50;65.60;;;;;;5070728;28;20071;-65
2022/06/18 08:54:18;;;;;;;7.78;3.50;;;27.60;66.90;;;;;;5072575;28;20480;-66
2022/06/18 08:57:09;;;;;;;5.25;3.63;;;27.70;67.50;;;;;;5090822;28;20035;-66
2022/06/18 09:00:11;;;;;;;5.72;3.22;;;27.70;66.60;;;;;;5091277;28;20036;-66
2022/06/18 09:02:52;;;;;;;5.68;2.95;;;27.90;66.80;;;;;;5082016;28;20063;-65
2022/06/18 09:05:36;;;;;;;3.78;3.00;;;27.90;60.70;;;;;;5091283;28;20392;-66
2022/06/18 09:08:40;;;;;;;4.00;3.20;;;28.00;63.30;;;;;;5089694;28;20043;-66
2022/06/18 09:11:41;;;;;;;5.28;3.08;;;28.00;63.50;;;;;;5091329;28;20063;-66
2022/06/18 09:14:17;;;;;;;4.20;3.05;;;28.30;58.80;;;;;;5092547;28;20031;-66
2022/06/18 09:17:08;;;;;;;4.88;2.90;;;28.60;61.60;;;;;;5094748;28;20028;-66
2022/06/18 09:19:36;;;;;;;4.32;3.33;;;28.80;62.10;;;;;;5081429;28;20032;-65
2022/06/18 09:22:10;;;;;;;5.38;3.10;;;28.80;59.30;;;;;;5070015;28;20646;-67
2022/06/18 09:24:43;;;;;;;4.38;3.10;;;28.80;61.80;;;;;;5089934;28;20036;-68
2022/06/18 09:27:19;;;;;;;3.55;2.80;;;28.80;59.40;;;;;;5089702;28;20103;-67
2022/06/18 09:29:54;;;;;;;3.15;2.70;;;28.90;59.20;;;;;;5084606;28;20052;-66
2022/06/18 09:32:23;;;;;;;3.15;2.75;;;28.80;57.80;;;;;;5088779;28;20036;-69
2022/06/18 09:35:10;;;;;;;3.78;2.58;;;28.90;57.20;;;;;;5089001;28;20032;-62
2022/06/18 09:38:04;;;;;;;6.60;2.67;;;28.90;56.50;;;;;;5090816;28;20483;-65
2022/06/18 09:40:34;;;;;;;3.15;2.60;;;29.10;57.20;;;;;;5086471;28;20101;-61
2022/06/18 09:43:28;;;;;;;6.03;2.85;;;29.30;57.50;;;;;;5088429;28;20099;-60
2022/06/18 09:45:59;;;;;;;3.22;2.90;;;29.30;59.10;;;;;;5080972;28;20029;-67
2022/06/18 09:48:24;;;;;;;4.03;3.05;;;29.40;58.10;;;;;;5069837;28;20040;-69
2022/06/18 09:50:54;;;;;;;3.80;3.10;;;29.70;57.70;;;;;;5071439;28;20041;-69
2022/06/18 09:53:19;;;;;;;6.25;3.25;;;29.70;56.40;;;;;;5089915;28;20154;-68
2022/06/18 09:55:49;;;;;;;4.25;3.42;;;29.90;56.80;;;;;;5089759;28;20685;-64
2022/06/18 09:58:30;;;;;;;3.67;3.10;;;30.00;56.60;;;;;;5088116;28;20036;-66
2022/06/18 10:00:58;;;;;;;5.15;2.70;;;30.10;56.10;;;;;;5082630;28;20046;-67
2022/06/18 10:09:05;;;;;;;2.70;2.17;;;30.00;49.90;;;;;;5089925;28;20104;-67
2022/06/18 10:11:31;;;;;;;9.35;2.80;;;30.20;50.50;;;;;;5089872;28;20050;-68
2022/06/18 10:14:06;;;;;;;2.40;2.20;;;30.40;50.70;;;;;;5086575;28;20544;-66
2022/06/18 10:16:50;;;;;;;4.88;2.80;;;30.70;51.00;;;;;;5085498;28;20070;-66
2022/06/18 10:19:23;;;;;;;3.55;2.50;;;31.00;49.10;;;;;;5089865;28;20364;-67
2022/06/18 10:22:02;;;;;;;3.38;2.38;;;30.80;49.50;;;;;;5080784;28;20031;-66
2022/06/18 10:24:28;;;;;;;3.13;2.30;;;30.80;51.70;;;;;;5078748;28;20174;-67
2022/06/18 10:27:11;;;;;;;2.35;2.00;;;30.90;49.90;;;;;;5083053;28;20103;-68
2022/06/18 10:29:50;;;;;;;3.03;2.30;;;31.00;47.90;;;;;;5089284;28;20055;-66
2022/06/18 10:33:02;;;;;;;6.43;2.60;;;30.90;47.50;;;;;;5079245;28;20084;-67
2022/06/18 10:35:58;;;;;;;11.27;2.53;;;31.00;46.30;;;;;;5063640;28;20113;-66
2022/06/18 10:38:49;;;;;;;8.43;2.25;;;31.00;46.20;;;;;;5076559;28;20103;-67
2022/06/18 10:41:37;;;;;;;2.90;1.83;;;31.10;44.90;;;;;;5086476;28;20040;-67
2022/06/18 10:44:27;;;;;;;3.63;2.25;;;31.20;45.70;;;;;;5089077;28;20178;-68
2022/06/18 10:47:08;;;;;;;4.82;2.47;;;31.50;47.80;;;;;;5088506;28;20380;-67
2022/06/18 10:49:34;;;;;;;2.60;2.10;;;31.10;47.30;;;;;;5086229;28;20496;-66
2022/06/18 10:52:01;;;;;;;5.38;2.83;;;30.80;48.20;;;;;;5088071;28;20106;-67
2022/06/18 10:54:36;;;;;;;3.67;2.33;;;31.10;46.70;;;;;;5085943;28;20543;-67
2022/06/18 10:57:04;;;;;;;4.95;2.65;;;31.20;45.00;;;;;;5087342;28;20089;-68
2022/06/18 10:59:36;;;;;;;6.95;2.47;;;31.50;46.70;;;;;;5086639;28;20480;-66
2022/06/18 11:02:33;;;;;;;4.40;2.10;;;31.50;44.20;;;;;;5083602;28;20020;-67
2022/06/18 11:05:03;;;;;;;6.85;2.35;;;31.90;45.00;;;;;;5084402;28;20039;-67
2022/06/18 11:07:33;;;;;;;7.85;2.08;;;32.20;43.70;;;;;;5085510;28;20126;-66
2022/06/18 11:10:04;;;;;;;5.72;2.40;;;32.30;43.00;;;;;;5099782;28;20479;-67
2022/06/18 11:12:35;;;;;;;7.30;2.65;;;32.50;44.20;;;;;;5109254;28;20484;-67
2022/06/18 11:15:02;;;;;;;5.90;2.70;;;32.50;44.90;;;;;;5091694;28;20039;-67
2022/06/18 11:17:41;;;;;;;6.80;2.30;;;32.80;45.20;;;;;;5088102;28;20089;-67
2022/06/18 11:20:22;;;;;;;7.70;2.55;;;32.60;42.20;;;;;;5079524;28;20164;-67
2022/06/18 11:23:03;;;;;;;5.18;2.40;;;32.20;44.20;;;;;;5078809;28;20028;-63
2022/06/18 11:25:44;;;;;;;3.83;2.50;;;32.20;44.20;;;;;;5071748;28;20016;-68
2022/06/18 11:28:36;;;;;;;5.22;2.60;;;32.30;43.40;;;;;;5085528;28;20140;-68
2022/06/18 11:31:04;;;;;;;6.07;2.78;;;32.80;42.70;;;;;;5073446;28;20032;-64
2022/06/18 11:33:55;;;;;;;7.07;2.55;;;33.20;45.60;;;;;;5080579;28;20036;-68
2022/06/18 11:36:33;;;;;;;10.90;2.83;;;33.60;44.70;;;;;;5085656;28;20046;-68
2022/06/18 11:39:00;;;;;;;13.13;2.20;;;33.60;42.00;;;;;;5084491;28;20024;-67
2022/06/18 11:41:35;;;;;;;5.45;2.20;;;33.50;43.10;;;;;;5089428;28;20059;-68
2022/06/18 11:44:00;;;;;;;6.35;2.60;;;33.50;42.30;;;;;;5071208;28;20491;-68
2022/06/18 11:46:33;;;;;;;5.65;2.53;;;33.50;41.50;;;;;;5080824;28;20032;-68
2022/06/18 11:49:11;;;;;;;7.70;2.33;;;33.20;40.60;;;;;;5070146;28;20039;-68
2022/06/18 11:51:59;;;;;;;3.90;2.40;;;33.30;44.20;;;;;;5081203;28;20036;-66
2022/06/18 11:54:39;;;;;;;5.95;2.65;;;33.50;40.40;;;;;;5081156;28;20055;-66
2022/06/18 11:57:15;;;;;;;11.02;2.78;;;33.80;41.80;;;;;;5075732;28;20070;-68
2022/06/18 11:59:52;;;;;;;6.43;2.70;;;33.90;40.90;;;;;;5072655;28;20040;-69
2022/06/18 12:02:45;;;;;;;7.68;2.50;;;33.80;41.00;;;;;;5084645;28;20445;-67
2022/06/18 12:05:17;;;;;;;7.05;2.60;;;33.50;42.60;;;;;;5074095;28;20020;-68
2022/06/18 12:07:49;;;;;;;8.05;2.35;;;33.70;42.90;;;;;;5076183;28;20027;-68
2022/06/18 12:10:17;;;;;;;13.75;2.72;;;34.20;45.60;;;;;;5071720;28;20033;-68
2022/06/18 12:13:13;;;;;;;8.05;2.50;;;34.40;40.90;;;;;;5071926;28;20036;-68
2022/06/18 12:15:52;;;;;;;10.27;2.20;;;34.50;43.60;;;;;;5080623;28;20041;-68
2022/06/18 12:18:42;;;;;;;5.53;2.65;;;34.70;41.20;;;;;;5082925;28;20594;-68
2022/06/18 12:21:19;;;;;;;6.50;2.70;;;34.70;40.60;;;;;;5084129;28;20740;-67
2022/06/18 12:23:48;;;;;;;15.85;2.60;;;34.90;40.80;;;;;;5089313;28;20035;-68
2022/06/18 12:26:21;;;;;;;7.85;2.90;;;35.10;40.20;;;;;;5086036;28;20035;-67
2022/06/18 12:29:15;;;;;;;13.75;2.83;;;35.10;39.70;;;;;;5089047;28;20425;-67
2022/06/18 12:32:03;;;;;;;16.15;3.20;;;34.90;39.40;;;;;;5093483;28;20514;-67
2022/06/18 12:34:58;;;;;;;10.27;2.93;;;34.20;40.50;;;;;;5061759;28;20055;-67
2022/06/18 12:37:50;;;;;;;11.90;3.67;;;34.20;42.40;;;;;;5089254;28;20024;-67
2022/06/18 12:40:28;;;;;;;12.68;2.95;;;34.10;40.40;;;;;;5093265;28;20498;-67
2022/06/18 12:42:59;;;;;;;6.72;2.95;;;34.00;40.20;;;;;;5077828;28;20024;-67
2022/06/18 12:46:05;;;;;;;13.30;2.97;;;33.80;42.40;;;;;;5088049;28;20025;-68
2022/06/18 12:48:57;;;;;;;10.85;2.72;;;33.90;43.90;;;;;;5086343;28;20026;-68
2022/06/18 12:51:41;;;;;;;13.13;3.20;;;34.20;40.30;;;;;;5084413;28;20028;-67
2022/06/18 12:54:16;;;;;;;11.98;3.20;;;34.50;40.50;;;;;;5090164;28;20028;-67
2022/06/18 12:57:04;;;;;;;15.50;3.92;;;34.60;42.60;;;;;;5089279;28;20615;-67
2022/06/18 12:59:43;;;;;;;17.08;3.30;;;34.30;42.70;;;;;;5089496;28;20032;-67
2022/06/18 13:02:24;;;;;;;11.00;3.13;;;34.20;40.20;;;;;;5088414;28;20020;-67
2022/06/18 13:05:07;;;;;;;13.48;4.20;;;34.30;44.10;;;;;;5091410;28;20056;-67
2022/06/18 13:07:54;;;;;;;16.58;4.28;;;34.40;41.90;;;;;;5087000;28;20089;-66
2022/06/18 13:10:51;;;;;;;10.23;4.32;;;34.40;42.60;;;;;;5091143;28;20028;-67
2022/06/18 13:13:31;;;;;;;13.15;3.83;;;34.30;42.70;;;;;;5084391;28;20373;-68
2022/06/18 13:16:07;;;;;;;11.80;3.80;;;34.10;43.30;;;;;;5089446;28;20036;-68
2022/06/18 13:18:57;;;;;;;15.23;4.43;;;34.20;43.90;;;;;;5090386;28;20038;-68
2022/06/18 13:21:23;;;;;;;20.50;4.32;;;34.20;40.80;;;;;;5089102;28;20036;-67
2022/06/18 13:30:23;;;;;;;19.33;4.35;;;34.50;43.20;;;;;;5070185;28;20523;-67
2022/06/18 13:33:10;;;;;;;16.85;4.38;;;34.60;44.30;;;;;;5087041;28;20435;-68